If you wish to contribute or participate in the discussions about articles you are invited to join SKYbrary as a registered user

 Actions

Angelholm Helsingborg Airport

From SKYbrary Wiki

ESTA
Airport
ICAO: ESTA
Summary
Name Angelholm Helsingborg Airport
Region Europe
Territory Sweden SE.gif
Location Angelholm, Sweden
Serving
Coordinates 56° 17' 27.9996", 12° 51' 18"
Runways
Designator Length Width Surface ROPS
4/22 1997 m6,551.837 ft 40 m131.234 ft ASP /
14/32 1945 m6,381.234 ft 40 m131.234 ft ASP yes/yes
METAR
Observation ESTA 130650Z 19013KT 9999 OVC015 02/M01 Q1003
Station ANGELHOLM (SWE-A
Date/Time 13 December 2017 06:50:00
Wind direction 190°
Wind speed 13 kts
Lowest cloud amount overcast
Temperature 2°C
Dew point
Humidity 80%
QNH 1003 hPa
Weather condition n/a

Angelholm-Helsingborg Airport

ICAO: ESTA IATA: AGH

Description

Airport serving towns of Angelholm and Helsingborg, southwest Sweden.

Climatology

Temperate Marine climate/Oceanic climate (Köppen climate classification Cfb). Moderately cool summer and comparatively warm winter.

Maps

Terrain

Loading map...

Airport Layout

Loading map...


Accidents & Serious Incidents at or in vicinity of ESTA

None on SKYbrary